createdAt,value
2018-09-17T00:02:20.783Z,13.98
2018-09-17T00:04:58.274Z,14.10
2018-09-17T00:07:36.199Z,14.05
2018-09-17T00:10:15.576Z,14.03
2018-09-17T00:12:55.691Z,14.00
2018-09-17T00:15:33.631Z,13.97
2018-09-17T00:18:12.248Z,13.96
2018-09-17T00:20:50.085Z,13.96
2018-09-17T00:23:29.385Z,13.94
2018-09-17T00:26:08.064Z,13.97
2018-09-17T00:28:37.571Z,14.01
2018-09-17T00:31:07.201Z,14.04
2018-09-17T00:33:36.717Z,14.03
2018-09-17T00:36:06.910Z,14.00
2018-09-17T00:38:36.354Z,14.01
2018-09-17T00:41:06.527Z,14.00
2018-09-17T00:43:35.959Z,14.01
2018-09-17T00:46:06.105Z,14.01
2018-09-17T00:48:35.459Z,14.00
2018-09-17T00:51:06.399Z,13.99
2018-09-17T00:53:35.773Z,13.97
2018-09-17T00:56:06.265Z,13.95
2018-09-17T00:58:35.860Z,13.95
2018-09-17T01:01:06.612Z,13.94
2018-09-17T01:03:35.976Z,13.92
2018-09-17T01:06:05.415Z,13.89
2018-09-17T01:08:34.822Z,13.85
2018-09-17T01:11:04.293Z,13.83
2018-09-17T01:13:34.517Z,13.82
2018-09-17T01:16:04.458Z,13.81
2018-09-17T01:18:33.850Z,13.79
2018-09-17T01:21:03.205Z,13.76
2018-09-17T01:23:32.558Z,13.73
2018-09-17T01:26:02.380Z,13.72
2018-09-17T01:28:31.822Z,13.68
2018-09-17T01:31:01.787Z,13.67
2018-09-17T01:33:31.733Z,13.66
2018-09-17T01:36:01.073Z,13.64
2018-09-17T01:38:30.584Z,13.66
2018-09-17T01:40:59.969Z,13.66
2018-09-17T01:43:29.341Z,13.64
2018-09-17T01:45:58.707Z,13.62
2018-09-17T01:48:28.129Z,13.63
2018-09-17T01:50:57.502Z,13.61
2018-09-17T01:53:26.889Z,13.61
2018-09-17T01:55:56.265Z,13.62
2018-09-17T01:58:25.599Z,13.63
2018-09-17T02:00:55.173Z,13.63
2018-09-17T02:03:24.604Z,13.63
2018-09-17T02:05:54.409Z,13.65
2018-09-17T02:08:24.066Z,13.67
2018-09-17T02:10:53.601Z,13.69
2018-09-17T02:13:23.234Z,13.70
2018-09-17T02:15:52.878Z,13.70
2018-09-17T02:18:22.694Z,13.74
2018-09-17T02:20:52.374Z,13.75
2018-09-17T02:23:21.922Z,13.76
2018-09-17T02:25:51.446Z,13.76
2018-09-17T02:28:20.937Z,13.71
2018-09-17T02:30:50.463Z,13.75
2018-09-17T02:33:20.070Z,13.73
2018-09-17T02:35:49.514Z,13.73
2018-09-17T02:38:18.990Z,13.72
2018-09-17T02:40:48.341Z,13.71
2018-09-17T02:43:17.764Z,13.70
2018-09-17T02:45:47.142Z,13.69
2018-09-17T02:48:16.527Z,13.69
2018-09-17T02:50:45.867Z,13.68
2018-09-17T02:53:15.221Z,13.66
2018-09-17T02:55:45.410Z,13.64
2018-09-17T02:58:20.783Z,13.62
2018-09-17T03:00:50.258Z,13.61
2018-09-17T03:03:19.611Z,13.74
2018-09-17T03:05:52.534Z,13.67
2018-09-17T03:08:22.120Z,13.63
2018-09-17T03:10:51.499Z,13.59
2018-09-17T03:13:20.910Z,13.56
2018-09-17T03:15:53.545Z,13.54
2018-09-17T03:18:39.798Z,13.53
2018-09-17T03:21:09.177Z,13.50
2018-09-17T03:23:39.031Z,13.41
2018-09-17T03:26:09.155Z,13.45
2018-09-17T03:28:38.524Z,13.41
2018-09-17T03:31:07.885Z,13.38
2018-09-17T03:33:37.298Z,13.34
2018-09-17T03:36:06.795Z,13.29
2018-09-17T03:38:47.731Z,13.25
2018-09-17T03:41:18.118Z,13.20
2018-09-17T03:43:48.813Z,13.15
2018-09-17T03:46:18.236Z,13.13
2018-09-17T03:48:47.686Z,13.09
2018-09-17T03:51:17.446Z,13.07
2018-09-17T03:53:46.846Z,13.05
2018-09-17T03:56:16.188Z,13.03
2018-09-17T03:58:45.688Z,13.01
2018-09-17T04:01:15.685Z,12.98
2018-09-17T04:03:45.136Z,12.94
2018-09-17T04:06:15.112Z,12.92
2018-09-17T04:08:44.474Z,12.88
2018-09-17T04:11:14.041Z,12.86
2018-09-17T04:13:43.714Z,12.84
2018-09-17T04:16:13.126Z,12.83
2018-09-17T04:18:42.537Z,12.83
2018-09-17T04:21:12.582Z,12.82
2018-09-17T04:23:41.980Z,12.80
2018-09-17T04:26:12.505Z,12.77
2018-09-17T04:28:41.944Z,12.76
2018-09-17T04:31:11.353Z,12.75
2018-09-17T04:33:42.974Z,12.73
2018-09-17T04:36:14.087Z,12.75
2018-09-17T04:38:43.470Z,12.73
2018-09-17T04:41:12.949Z,12.70
2018-09-17T04:43:42.450Z,12.69
2018-09-17T04:46:11.887Z,12.67
2018-09-17T04:48:41.238Z,12.64
2018-09-17T04:51:17.342Z,12.60
2018-09-17T04:53:46.776Z,12.55
2018-09-17T04:56:16.154Z,12.52
2018-09-17T04:58:45.674Z,12.47
2018-09-17T05:01:15.152Z,12.43
2018-09-17T05:03:44.541Z,12.40
2018-09-17T05:06:13.967Z,12.37
2018-09-17T05:08:43.374Z,12.34
2018-09-17T05:11:12.814Z,12.30
2018-09-17T05:13:42.266Z,12.29
2018-09-17T05:16:12.744Z,12.26
2018-09-17T05:18:42.111Z,12.25
2018-09-17T05:21:11.523Z,12.24
2018-09-17T05:23:40.888Z,12.23
2018-09-17T05:26:10.390Z,12.22
2018-09-17T05:28:39.794Z,12.23
2018-09-17T05:31:09.223Z,12.25
2018-09-17T05:33:39.621Z,12.27
2018-09-17T05:36:09.070Z,12.28
2018-09-17T05:38:38.524Z,12.31
2018-09-17T05:41:07.887Z,12.37
2018-09-17T05:43:37.309Z,12.42
2018-09-17T05:46:06.824Z,12.47
2018-09-17T05:48:36.406Z,12.53
2018-09-17T05:51:06.141Z,12.62
2018-09-17T05:53:35.532Z,12.69
2018-09-17T05:56:05.010Z,12.79
2018-09-17T05:58:34.469Z,12.89
2018-09-17T06:01:03.887Z,13.00
2018-09-17T06:03:33.287Z,13.12
2018-09-17T06:06:02.784Z,13.24
2018-09-17T06:08:32.157Z,13.38
2018-09-17T06:11:01.782Z,13.47
2018-09-17T06:13:31.151Z,13.61
2018-09-17T06:16:00.704Z,13.76
2018-09-17T06:18:30.197Z,13.89
2018-09-17T06:20:59.754Z,14.01
2018-09-17T06:23:29.206Z,14.12
2018-09-17T06:25:58.673Z,14.18
2018-09-17T06:28:28.261Z,14.32
2018-09-17T06:30:59.702Z,14.45
2018-09-17T06:33:29.168Z,14.56
2018-09-17T06:35:58.656Z,14.67
2018-09-17T06:38:29.766Z,14.77
2018-09-17T06:41:00.183Z,14.88
2018-09-17T06:43:29.693Z,15.00
2018-09-17T06:46:07.323Z,15.12
2018-09-17T06:48:37.229Z,15.29
2018-09-17T06:51:07.005Z,15.46
2018-09-17T06:53:36.492Z,15.60
2018-09-17T06:56:06.962Z,15.73
2018-09-17T06:58:38.327Z,15.86
2018-09-17T07:01:13.369Z,15.94
2018-09-17T07:03:42.837Z,16.03
2018-09-17T07:06:12.429Z,16.11
2018-09-17T07:08:41.898Z,16.19
2018-09-17T07:11:11.826Z,16.26
2018-09-17T07:13:41.866Z,16.32
2018-09-17T07:16:11.402Z,16.37
2018-09-17T07:18:40.880Z,16.43
2018-09-17T07:21:10.362Z,16.49
2018-09-17T07:23:39.854Z,16.57
2018-09-17T07:26:09.332Z,16.63
2018-09-17T07:28:38.915Z,16.70
2018-09-17T07:31:08.406Z,16.78
2018-09-17T07:33:39.684Z,16.91
2018-09-17T07:36:09.099Z,17.02
2018-09-17T07:38:38.553Z,17.14
2018-09-17T07:41:08.109Z,17.26
2018-09-17T07:43:37.534Z,17.43
2018-09-17T07:46:07.104Z,17.61
2018-09-17T07:48:36.514Z,17.79
2018-09-17T07:51:06.218Z,17.99
2018-09-17T07:53:35.633Z,18.11
2018-09-17T07:56:05.184Z,18.22
2018-09-17T07:58:34.668Z,18.29
2018-09-17T08:01:04.330Z,18.36
2018-09-17T08:03:33.796Z,18.46
2018-09-17T08:06:03.240Z,18.63
2018-09-17T08:08:33.960Z,18.81
2018-09-17T08:11:03.450Z,18.93
2018-09-17T08:13:32.913Z,19.06
2018-09-17T08:16:02.834Z,19.26
2018-09-17T08:18:32.559Z,19.45
2018-09-17T08:21:05.054Z,19.52
2018-09-17T08:23:34.560Z,19.62
2018-09-17T08:26:03.978Z,19.73
2018-09-17T08:28:33.385Z,19.84
2018-09-17T08:31:06.303Z,19.96
2018-09-17T08:33:36.093Z,20.12
2018-09-17T08:36:06.533Z,20.27
2018-09-17T08:38:36.174Z,20.36
2018-09-17T08:41:06.557Z,20.49
2018-09-17T08:43:36.980Z,20.67
2018-09-17T08:46:07.059Z,20.85
2018-09-17T08:48:36.452Z,20.98
2018-09-17T08:51:06.253Z,21.13
2018-09-17T08:53:35.629Z,21.29
2018-09-17T08:56:11.875Z,21.33
2018-09-17T09:00:49.527Z,21.36
2018-09-17T09:03:24.300Z,21.27
2018-09-17T09:05:58.788Z,21.38
2018-09-17T09:08:28.185Z,21.47
2018-09-17T09:11:02.733Z,21.61
2018-09-17T09:13:39.010Z,21.76
2018-09-17T09:16:09.358Z,21.96
2018-09-17T09:18:38.814Z,22.11
2018-09-17T09:21:08.277Z,22.27
2018-09-17T09:23:38.316Z,22.46
2018-09-17T09:26:08.045Z,22.60
2018-09-17T09:28:37.631Z,22.71
2018-09-17T09:31:07.010Z,22.74
2018-09-17T09:33:36.754Z,22.69
2018-09-17T09:36:06.231Z,22.64
2018-09-17T09:38:35.680Z,22.62
2018-09-17T09:41:06.522Z,22.69
2018-09-17T09:43:35.930Z,22.83
2018-09-17T09:46:06.431Z,22.97
2018-09-17T09:48:35.926Z,23.08
2018-09-17T09:51:06.666Z,23.12
2018-09-17T09:53:36.228Z,23.16
2018-09-17T09:56:06.190Z,23.19
2018-09-17T09:58:36.886Z,23.28
2018-09-17T10:01:12.665Z,23.43
2018-09-17T10:03:43.814Z,23.56
2018-09-17T10:06:15.465Z,23.70
2018-09-17T10:08:50.160Z,23.81
2018-09-17T10:11:24.723Z,23.82
2018-09-17T10:13:59.399Z,23.85
2018-09-17T10:16:29.637Z,23.92
2018-09-17T10:19:04.216Z,24.00
2018-09-17T10:21:33.687Z,24.10
2018-09-17T10:24:03.066Z,24.15
2018-09-17T10:26:32.457Z,24.19
2018-09-17T10:29:02.053Z,24.25
2018-09-17T10:31:31.523Z,24.34
2018-09-17T10:34:00.982Z,24.41
2018-09-17T10:36:30.486Z,24.40
2018-09-17T10:38:59.970Z,24.41
2018-09-17T10:41:29.424Z,24.37
2018-09-17T10:43:58.831Z,24.46
2018-09-17T10:46:29.546Z,24.60
2018-09-17T10:48:58.990Z,24.80
2018-09-17T10:51:28.490Z,24.86
2018-09-17T10:53:58.028Z,24.95
2018-09-17T10:56:27.447Z,25.15
2018-09-17T10:58:56.898Z,25.27
2018-09-17T11:01:26.319Z,25.37
2018-09-17T11:03:59.306Z,25.46
2018-09-17T11:06:28.710Z,25.53
2018-09-17T11:08:58.173Z,25.47
2018-09-17T11:11:27.549Z,25.43
2018-09-17T11:13:56.974Z,25.46
2018-09-17T11:16:26.340Z,25.62
2018-09-17T11:18:55.898Z,25.76
2018-09-17T11:21:25.333Z,26.08
2018-09-17T11:23:54.713Z,26.13
2018-09-17T11:26:25.398Z,26.14
2018-09-17T11:28:54.859Z,26.24
2018-09-17T11:31:24.311Z,26.33
2018-09-17T11:33:53.795Z,26.37
2018-09-17T11:36:23.291Z,26.39
2018-09-17T11:38:52.717Z,26.49
2018-09-17T11:41:22.106Z,26.62
2018-09-17T11:43:51.593Z,26.79
2018-09-17T11:46:21.104Z,26.85
2018-09-17T11:48:50.590Z,26.92
2018-09-17T11:51:19.995Z,27.11
2018-09-17T11:53:49.442Z,27.20
2018-09-17T11:56:18.935Z,27.34
2018-09-17T11:58:48.413Z,27.47
2018-09-17T12:02:24.385Z,27.69
2018-09-17T12:05:03.696Z,28.47
2018-09-17T12:07:43.628Z,28.36
2018-09-17T12:10:13.045Z,28.50
2018-09-17T12:12:42.459Z,28.77
2018-09-17T12:15:11.922Z,29.03
2018-09-17T12:17:41.358Z,29.23
2018-09-17T12:20:10.802Z,29.47
2018-09-17T12:22:40.150Z,29.68
2018-09-17T12:25:09.570Z,29.97
2018-09-17T12:27:38.950Z,30.41
2018-09-17T12:30:08.376Z,30.73
2018-09-17T12:32:37.739Z,30.86
2018-09-17T12:35:07.221Z,31.14
2018-09-17T12:37:36.606Z,30.91
2018-09-17T12:40:06.307Z,30.79
2018-09-17T12:42:35.700Z,30.99
2018-09-17T12:45:06.559Z,31.14
2018-09-17T12:47:36.001Z,31.34
2018-09-17T12:50:06.387Z,31.56
2018-09-17T12:52:35.782Z,31.72
2018-09-17T12:55:05.147Z,31.84
2018-09-17T12:57:34.531Z,32.03
2018-09-17T13:00:04.031Z,32.29
2018-09-17T13:02:37.108Z,32.56
2018-09-17T13:05:06.669Z,32.99
2018-09-17T13:07:36.103Z,33.13
2018-09-17T13:10:06.462Z,33.00
2018-09-17T13:12:35.894Z,32.72
2018-09-17T13:15:07.205Z,32.69
2018-09-17T13:17:36.915Z,32.85
2018-09-17T13:20:06.998Z,33.05
2018-09-17T13:22:36.397Z,32.99
2018-09-17T13:25:06.191Z,33.06
2018-09-17T13:27:35.667Z,33.14
2018-09-17T13:30:07.020Z,33.19
2018-09-17T13:32:36.470Z,33.62
2018-09-17T13:35:07.169Z,33.96
2018-09-17T13:37:36.605Z,33.88
2018-09-17T13:40:06.121Z,33.87
2018-09-17T13:42:35.682Z,33.15
2018-09-17T13:45:08.343Z,32.88
2018-09-17T13:47:37.880Z,33.62
2018-09-17T13:50:07.923Z,33.77
2018-09-17T13:52:37.623Z,33.98
2018-09-17T13:55:08.225Z,34.13
2018-09-17T13:57:37.829Z,33.91
2018-09-17T14:00:07.450Z,34.20
2018-09-17T14:02:36.963Z,34.91
2018-09-17T14:05:07.405Z,35.29
2018-09-17T14:07:36.879Z,34.92
2018-09-17T14:10:06.960Z,34.60
2018-09-17T14:12:36.338Z,34.75
2018-09-17T14:15:06.627Z,35.33
2018-09-17T14:17:36.069Z,36.06
2018-09-17T14:20:07.655Z,36.39
2018-09-17T14:22:37.615Z,36.55
2018-09-17T14:25:07.339Z,36.32
2018-09-17T14:27:36.887Z,36.20
2018-09-17T14:30:06.834Z,36.21
2018-09-17T14:32:41.530Z,36.18
2018-09-17T14:35:11.253Z,35.99
2018-09-17T14:37:40.651Z,36.02
2018-09-17T14:40:10.177Z,36.39
2018-09-17T14:42:39.674Z,36.52
2018-09-17T14:45:09.152Z,36.56
2018-09-17T14:47:38.594Z,36.56
2018-09-17T14:50:08.718Z,36.50
2018-09-17T14:52:38.374Z,37.13
2018-09-17T14:55:07.798Z,37.09
2018-09-17T14:57:37.246Z,37.22
2018-09-17T15:00:06.821Z,37.54
2018-09-17T15:02:36.279Z,37.36
2018-09-17T15:05:06.372Z,37.59
2018-09-17T15:07:36.020Z,37.96
2018-09-17T15:10:07.071Z,37.98
2018-09-17T15:12:36.788Z,38.13
2018-09-17T15:15:06.890Z,37.91
2018-09-17T15:17:36.361Z,38.30
2018-09-17T15:20:06.162Z,38.88
2018-09-17T15:22:35.602Z,39.39
2018-09-17T15:25:06.409Z,39.42
2018-09-17T15:27:35.866Z,39.65
2018-09-17T15:30:07.371Z,39.52
2018-09-17T15:32:36.878Z,39.33
2018-09-17T15:35:06.523Z,39.01
2018-09-17T15:37:35.981Z,38.83
2018-09-17T15:40:05.636Z,38.84
2018-09-17T15:42:35.050Z,38.53
2018-09-17T15:45:04.393Z,38.63
2018-09-17T15:47:33.882Z,38.56
2018-09-17T15:50:03.313Z,38.28
2018-09-17T15:52:32.852Z,37.95
2018-09-17T15:55:02.458Z,37.93
2018-09-17T15:57:31.871Z,37.89
2018-09-17T16:00:01.332Z,38.16
2018-09-17T16:02:30.893Z,38.68
2018-09-17T16:05:02.495Z,39.12
2018-09-17T16:07:31.983Z,39.12
2018-09-17T16:10:01.518Z,39.01
2018-09-17T16:12:31.204Z,39.06
2018-09-17T16:15:00.580Z,38.89
2018-09-17T16:17:30.036Z,38.88
2018-09-17T16:19:59.794Z,39.02
2018-09-17T16:22:29.146Z,39.25
2018-09-17T16:24:58.758Z,39.43
2018-09-17T16:27:29.771Z,39.32
2018-09-17T16:29:59.293Z,39.44
2018-09-17T16:32:28.807Z,39.48
2018-09-17T16:34:58.307Z,39.03
2018-09-17T16:37:27.724Z,38.59
2018-09-17T16:39:57.285Z,38.35
2018-09-17T16:42:32.057Z,38.40
2018-09-17T16:45:01.454Z,38.17
2018-09-17T16:47:30.855Z,37.80
2018-09-17T16:50:00.300Z,37.37
2018-09-17T16:52:29.836Z,37.27
2018-09-17T16:54:59.261Z,37.11
2018-09-17T16:57:28.660Z,36.75
2018-09-17T16:59:58.198Z,36.66
2018-09-17T17:02:27.617Z,36.96
2018-09-17T17:04:57.104Z,37.18
2018-09-17T17:07:30.974Z,37.32
2018-09-17T17:10:00.465Z,36.61
2018-09-17T17:12:29.809Z,35.28
2018-09-17T17:14:59.275Z,34.01
2018-09-17T17:17:28.690Z,32.95
2018-09-17T17:19:58.247Z,32.10
2018-09-17T17:22:27.773Z,31.40
2018-09-17T17:24:57.213Z,30.85
2018-09-17T17:27:26.862Z,30.32
2018-09-17T17:29:56.272Z,29.80
2018-09-17T17:32:25.734Z,29.21
2018-09-17T17:34:55.114Z,28.64
2018-09-17T17:37:24.584Z,28.17
2018-09-17T17:39:54.154Z,27.70
2018-09-17T17:42:25.483Z,27.24
2018-09-17T17:44:55.341Z,26.80
2018-09-17T17:47:24.761Z,26.40
2018-09-17T17:49:54.256Z,26.04
2018-09-17T17:52:23.852Z,25.70
2018-09-17T17:54:53.175Z,25.41
2018-09-17T17:57:22.632Z,25.12
2018-09-17T17:59:52.067Z,24.85
2018-09-17T18:02:21.501Z,24.58
2018-09-17T18:04:50.958Z,24.33
2018-09-17T18:07:20.976Z,24.10
2018-09-17T18:09:50.469Z,23.87
2018-09-17T18:12:19.989Z,23.65
2018-09-17T18:14:49.436Z,23.42
2018-09-17T18:17:18.862Z,23.21
2018-09-17T18:19:48.535Z,23.01
2018-09-17T18:22:18.189Z,22.84
2018-09-17T18:24:47.658Z,22.65
2018-09-17T18:27:22.756Z,22.48
2018-09-17T18:29:52.158Z,22.30
2018-09-17T18:32:21.618Z,22.13
2018-09-17T18:34:51.115Z,21.99
2018-09-17T18:37:20.509Z,21.85
2018-09-17T18:40:03.069Z,21.69
2018-09-17T18:42:32.892Z,21.55
2018-09-17T18:45:02.561Z,21.39
2018-09-17T18:47:33.021Z,21.26
2018-09-17T18:50:02.468Z,21.12
2018-09-17T18:52:32.178Z,20.97
2018-09-17T18:55:05.040Z,20.86
2018-09-17T18:57:34.523Z,20.72
2018-09-17T19:00:04.022Z,20.61
2018-09-17T19:02:33.434Z,20.49
2018-09-17T19:05:02.951Z,20.48
2018-09-17T19:07:32.363Z,20.34
2018-09-17T19:10:01.935Z,20.20
2018-09-17T19:12:33.206Z,20.09
2018-09-17T19:15:09.371Z,19.99
2018-09-17T19:17:41.820Z,19.88
2018-09-17T19:20:12.622Z,19.80
2018-09-17T19:22:47.167Z,19.71
2018-09-17T19:25:16.791Z,19.62
2018-09-17T19:27:51.410Z,19.52
2018-09-17T19:30:21.303Z,19.42
2018-09-17T19:32:50.691Z,19.35
2018-09-17T19:35:20.117Z,19.27
2018-09-17T19:37:54.849Z,19.20
2018-09-17T19:40:24.390Z,19.11
2018-09-17T19:42:53.670Z,19.04
2018-09-17T19:45:29.363Z,18.97
2018-09-17T19:47:58.890Z,18.87
2018-09-17T19:50:35.980Z,18.80
2018-09-17T19:53:06.406Z,18.72
2018-09-17T19:55:35.866Z,18.64
2018-09-17T19:58:16.198Z,18.58
2018-09-17T20:00:45.637Z,18.49
2018-09-17T20:03:15.021Z,18.39
2018-09-17T20:05:49.577Z,18.32
2018-09-17T20:08:19.443Z,18.26
2018-09-17T20:10:49.147Z,18.18
2018-09-17T20:13:18.703Z,18.11
2018-09-17T20:15:49.381Z,18.05
2018-09-17T20:18:24.129Z,17.98
2018-09-17T20:20:53.483Z,17.90
2018-09-17T20:23:23.093Z,17.86
2018-09-17T20:25:54.612Z,17.79
2018-09-17T20:28:24.191Z,17.72
2018-09-17T20:30:53.797Z,17.65
2018-09-17T20:33:25.823Z,17.59
2018-09-17T20:35:55.262Z,17.54
2018-09-17T20:38:24.704Z,17.48
2018-09-17T20:40:54.034Z,17.41
2018-09-17T20:43:23.790Z,17.32
2018-09-17T20:45:54.042Z,17.24
2018-09-17T20:48:23.451Z,17.17
2018-09-17T20:50:53.222Z,17.11
2018-09-17T20:53:22.977Z,17.05
2018-09-17T20:55:56.336Z,17.00
2018-09-17T20:58:29.531Z,16.93
2018-09-17T21:00:59.710Z,16.87
2018-09-17T21:03:29.285Z,16.81
2018-09-17T21:05:59.857Z,16.74
2018-09-17T21:08:31.680Z,16.67
2018-09-17T21:11:01.134Z,16.62
2018-09-17T21:13:30.639Z,16.57
2018-09-17T21:16:00.935Z,16.52
2018-09-17T21:18:30.469Z,16.50
2018-09-17T21:21:04.101Z,16.44
2018-09-17T21:23:33.625Z,16.39
2018-09-17T21:26:03.085Z,16.33
2018-09-17T21:28:32.650Z,16.27
2018-09-17T21:31:02.048Z,16.23
2018-09-17T21:33:31.616Z,16.19
2018-09-17T21:36:00.996Z,16.13
2018-09-17T21:38:30.415Z,16.09
2018-09-17T21:40:59.946Z,16.04
2018-09-17T21:43:29.394Z,16.03
2018-09-17T21:45:58.770Z,16.02
2018-09-17T21:48:28.185Z,16.01
2018-09-17T21:50:57.570Z,15.98
2018-09-17T21:53:36.030Z,15.95
2018-09-17T21:56:06.213Z,15.89
2018-09-17T21:58:35.616Z,15.87
2018-09-17T22:01:06.234Z,15.83
2018-09-17T22:03:37.151Z,15.79
2018-09-17T22:06:06.556Z,15.78
2018-09-17T22:08:35.981Z,15.78
2018-09-17T22:11:06.112Z,15.77
2018-09-17T22:13:35.537Z,15.75
2018-09-17T22:16:06.140Z,15.72
2018-09-17T22:18:35.719Z,15.68
2018-09-17T22:21:06.352Z,15.63
2018-09-17T22:23:35.757Z,15.74
2018-09-17T22:26:06.447Z,15.67
2018-09-17T22:28:35.947Z,15.60
2018-09-17T22:31:06.130Z,15.55
2018-09-17T22:33:35.557Z,15.51
2018-09-17T22:36:06.194Z,15.49
2018-09-17T22:38:35.578Z,15.48
2018-09-17T22:41:05.052Z,15.43
2018-09-17T22:43:34.469Z,15.46
2018-09-17T22:46:03.814Z,15.47
2018-09-17T22:48:33.154Z,15.50
2018-09-17T22:51:02.510Z,15.54
2018-09-17T22:53:31.863Z,15.61
2018-09-17T22:56:01.219Z,15.66
2018-09-17T22:58:30.596Z,15.73
2018-09-17T23:00:59.930Z,15.79
2018-09-17T23:03:29.865Z,15.82
2018-09-17T23:06:06.315Z,15.84
2018-09-17T23:08:43.524Z,15.89
2018-09-17T23:11:21.014Z,15.93
2018-09-17T23:13:58.103Z,15.97
2018-09-17T23:16:35.619Z,16.03
2018-09-17T23:19:14.716Z,16.08
2018-09-17T23:21:52.034Z,16.12
2018-09-17T23:24:29.579Z,16.15
2018-09-17T23:27:05.143Z,16.16
2018-09-17T23:29:41.596Z,16.17
2018-09-17T23:32:19.098Z,16.16
2018-09-17T23:34:57.135Z,16.15
2018-09-17T23:37:36.590Z,16.13
2018-09-17T23:40:21.736Z,16.10
2018-09-17T23:42:59.377Z,16.09
2018-09-17T23:45:37.373Z,16.07
2018-09-17T23:48:15.236Z,16.02
2018-09-17T23:50:52.276Z,16.00
2018-09-17T23:53:29.469Z,15.96
2018-09-17T23:56:06.281Z,15.91
2018-09-17T23:58:43.384Z,15.86
